Time;durP1;ratioP1;P1;durP2;ratioP2;P2;SDS_P1;SDS_P2;PMS_P1;PMS_P2;Temp;Humidity;BMP_temperature;BMP_pressure;BME280_temperature;BME280_humidity;BME280_pressure;Samples;Min_cycle;Max_cycle;Signal;HPM_P1;HPM_P2
2023/04/08 00:00:33;;;;;;;10.57;9.37;;;;;;;7.25;100.00;100500.50;5039058;28;20951;-71
2023/04/08 00:03:00;;;;;;;10.03;9.03;;;;;;;7.21;100.00;100498.94;5063792;28;20177;-71
2023/04/08 00:05:26;;;;;;;10.43;8.77;;;;;;;7.14;100.00;100498.31;5049003;28;20189;-69
2023/04/08 00:07:51;;;;;;;10.90;9.23;;;;;;;7.11;100.00;100498.41;5051713;28;20255;-70
2023/04/08 00:10:17;;;;;;;11.73;9.97;;;;;;;7.07;100.00;100489.16;5040427;28;20640;-67
2023/04/08 00:12:42;;;;;;;11.27;9.60;;;;;;;7.09;100.00;100497.63;5066483;28;20648;-67
2023/04/08 00:15:08;;;;;;;10.97;9.33;;;;;;;7.07;100.00;100497.69;5049898;28;20173;-67
2023/04/08 00:17:33;;;;;;;10.30;8.93;;;;;;;7.08;100.00;100498.50;5051964;28;20905;-69
2023/04/08 00:19:59;;;;;;;10.97;9.80;;;;;;;7.04;100.00;100505.44;5044732;28;20245;-68
2023/04/08 00:22:24;;;;;;;12.43;11.23;;;;;;;7.39;100.00;100502.56;5040335;28;20444;-69
2023/04/08 00:24:50;;;;;;;11.93;10.03;;;;;;;7.21;100.00;100509.19;5047014;28;20178;-69
2023/04/08 00:27:15;;;;;;;11.20;9.90;;;;;;;7.13;100.00;100508.59;5067078;28;20236;-68
2023/04/08 00:29:40;;;;;;;11.37;8.90;;;;;;;7.08;100.00;100506.19;5042334;28;20177;-68
2023/04/08 00:32:06;;;;;;;10.60;9.50;;;;;;;7.09;100.00;100510.41;5045652;28;20221;-67
2023/04/08 00:34:31;;;;;;;12.40;9.87;;;;;;;7.10;100.00;100505.25;5043759;28;20525;-70
2023/04/08 00:36:56;;;;;;;12.20;9.73;;;;;;;7.09;100.00;100506.16;5048017;28;20221;-70
2023/04/08 00:39:22;;;;;;;12.17;10.57;;;;;;;7.11;100.00;100503.53;5043807;28;20344;-69
2023/04/08 00:41:47;;;;;;;12.80;11.13;;;;;;;7.07;100.00;100507.91;5045864;28;20509;-68
2023/04/08 00:44:12;;;;;;;12.27;10.27;;;;;;;7.08;100.00;100512.16;5041777;28;20934;-68
2023/04/08 00:46:39;;;;;;;11.87;10.30;;;;;;;7.14;100.00;100505.97;5046084;28;20343;-70
2023/04/08 00:49:08;;;;;;;12.17;10.30;;;;;;;7.20;100.00;100505.78;5045803;28;20209;-67
2023/04/08 00:51:35;;;;;;;11.77;10.00;;;;;;;7.23;100.00;100502.28;5036856;28;20222;-68
2023/04/08 00:54:01;;;;;;;13.90;11.07;;;;;;;7.26;100.00;100503.00;5049036;28;20185;-67
2023/04/08 00:56:26;;;;;;;11.67;10.47;;;;;;;7.29;100.00;100509.72;5048734;28;20181;-68
2023/04/08 00:58:54;;;;;;;14.30;10.77;;;;;;;7.33;100.00;100511.31;5048450;28;20759;-67
2023/04/08 01:01:30;;;;;;;12.23;10.97;;;;;;;7.24;100.00;100509.91;5041544;28;20248;-67
2023/04/08 01:04:06;;;;;;;11.97;10.37;;;;;;;7.31;100.00;100507.97;5054681;28;20204;-68
2023/04/08 01:06:41;;;;;;;11.73;10.27;;;;;;;7.31;100.00;100513.09;5047243;28;20177;-65
2023/04/08 01:09:08;;;;;;;12.13;10.83;;;;;;;7.34;100.00;100504.47;5049099;28;20203;-68
2023/04/08 01:11:37;;;;;;;12.77;11.07;;;;;;;7.37;100.00;100506.94;5048374;28;20236;-69
2023/04/08 01:14:06;;;;;;;13.07;11.03;;;;;;;7.34;100.00;100514.69;5054295;28;20189;-68
2023/04/08 01:16:32;;;;;;;12.47;10.87;;;;;;;7.35;100.00;100513.81;5065804;28;20225;-69
2023/04/08 01:18:58;;;;;;;14.07;11.13;;;;;;;7.33;100.00;100511.31;5049920;28;20213;-69
2023/04/08 01:21:25;;;;;;;14.43;11.93;;;;;;;7.32;100.00;100512.19;5042605;28;20370;-69
2023/04/08 01:24:17;;;;;;;13.63;12.03;;;;;;;7.22;100.00;100518.53;5062076;28;20177;-69
2023/04/08 01:26:43;;;;;;;14.80;11.43;;;;;;;7.29;100.00;100514.03;5066221;28;20275;-68
2023/04/08 01:29:10;;;;;;;14.07;11.50;;;;;;;7.30;100.00;100515.72;5061000;28;20287;-69
2023/04/08 01:31:36;;;;;;;13.53;11.53;;;;;;;7.31;100.00;100507.16;5068009;28;20228;-69
2023/04/08 01:34:05;;;;;;;13.30;11.30;;;;;;;7.26;100.00;100515.78;5062727;28;20182;-69
2023/04/08 01:36:31;;;;;;;12.57;10.37;;;;;;;7.32;100.00;100509.66;5056450;28;20185;-69
2023/04/08 01:38:59;;;;;;;12.53;11.10;;;;;;;7.30;100.00;100511.41;5059496;28;20181;-69
2023/04/08 01:41:25;;;;;;;12.97;11.53;;;;;;;7.35;100.00;100512.09;5045013;28;20305;-70
2023/04/08 01:43:51;;;;;;;14.43;12.17;;;;;;;7.35;100.00;100517.19;5050011;28;20546;-69
2023/04/08 01:46:19;;;;;;;14.67;11.93;;;;;;;7.39;100.00;100502.56;5052008;28;20252;-69
2023/04/08 01:48:45;;;;;;;13.70;11.87;;;;;;;7.38;100.00;100501.75;5042381;28;20204;-69
2023/04/08 01:51:12;;;;;;;13.27;11.43;;;;;;;7.38;100.00;100503.47;5041517;28;20304;-68
2023/04/08 01:53:37;;;;;;;13.10;11.33;;;;;;;7.40;100.00;100499.13;5050559;28;20185;-68
2023/04/08 01:56:06;;;;;;;12.67;11.00;;;;;;;7.35;100.00;100499.28;5042966;28;20693;-67
2023/04/08 01:58:39;;;;;;;13.30;11.83;;;;;;;7.36;100.00;100500.97;5046317;28;20598;-68
2023/04/08 02:01:11;;;;;;;14.73;12.13;;;;;;;7.36;100.00;100500.97;5045361;28;20223;-67
2023/04/08 02:03:36;;;;;;;13.77;11.07;;;;;;;7.39;100.00;100502.56;5049939;28;20173;-67
2023/04/08 02:06:02;;;;;;;14.73;12.37;;;;;;;7.37;100.00;100506.94;5050795;28;20243;-68
2023/04/08 02:08:27;;;;;;;14.27;11.97;;;;;;;7.38;100.00;100506.88;5050985;28;20220;-68
2023/04/08 02:10:52;;;;;;;15.03;11.63;;;;;;;7.21;100.00;100507.44;5048093;28;20232;-67
2023/04/08 02:13:18;;;;;;;12.80;11.50;;;;;;;7.33;100.00;100507.91;5048313;28;20177;-67
2023/04/08 02:15:50;;;;;;;12.63;11.27;;;;;;;7.35;100.00;100509.53;5050696;28;20689;-67
2023/04/08 02:18:25;;;;;;;13.00;11.53;;;;;;;7.33;100.00;100508.75;5047727;28;20200;-67
2023/04/08 02:20:58;;;;;;;12.93;10.57;;;;;;;7.35;100.00;100506.16;5039561;28;20221;-67
2023/04/08 02:23:28;;;;;;;12.40;11.10;;;;;;;7.36;100.00;100508.63;5039213;28;20541;-67
2023/04/08 02:25:55;;;;;;;13.13;11.30;;;;;;;7.41;100.00;100511.88;5055110;28;20191;-68
2023/04/08 02:28:21;;;;;;;14.60;12.70;;;;;;;7.44;100.00;100508.38;5054916;28;20221;-69
2023/04/08 02:30:51;;;;;;;12.47;11.13;;;;;;;7.42;100.00;100508.44;5050117;28;20381;-68
2023/04/08 02:33:21;;;;;;;15.07;11.97;;;;;;;7.41;100.00;100508.50;5064969;28;20177;-68
2023/04/08 02:35:54;;;;;;;13.77;11.40;;;;;;;7.41;100.00;100517.00;5054362;28;20227;-67
2023/04/08 02:38:20;;;;;;;13.50;12.10;;;;;;;7.40;100.00;100507.63;5074769;28;20173;-67
2023/04/08 02:40:48;;;;;;;12.70;11.17;;;;;;;7.37;100.00;100512.88;5063430;28;20308;-67
2023/04/08 02:43:14;;;;;;;12.77;11.47;;;;;;;7.29;100.00;100519.97;5085156;28;20263;-68
2023/04/08 02:45:43;;;;;;;15.23;12.13;;;;;;;7.25;100.00;100518.41;5056519;28;20312;-68
2023/04/08 02:48:09;;;;;;;14.60;11.60;;;;;;;7.22;100.00;100510.84;5073387;28;20192;-67
2023/04/08 02:50:34;;;;;;;13.97;12.50;;;;;;;7.14;100.00;100515.38;5047163;28;20776;-68
2023/04/08 02:53:00;;;;;;;13.37;11.97;;;;;;;7.01;100.00;100515.78;5073738;28;20176;-69
2023/04/08 02:55:25;;;;;;;14.90;12.77;;;;;;;6.81;100.00;100524.13;5058173;28;20280;-68
2023/04/08 02:57:50;;;;;;;13.40;11.93;;;;;;;6.78;100.00;100526.75;5072703;28;20255;-68
2023/04/08 03:00:16;;;;;;;16.70;14.23;;;;;;;6.61;100.00;100520.47;5040427;28;20578;-68
2023/04/08 03:02:41;;;;;;;15.87;12.93;;;;;;;6.56;100.00;100524.03;5061357;28;20256;-67
2023/04/08 03:05:08;;;;;;;14.77;12.90;;;;;;;6.46;100.00;100523.47;5063119;28;20209;-67
2023/04/08 03:07:33;;;;;;;14.57;12.50;;;;;;;6.37;100.00;100528.88;5061302;28;20666;-68
2023/04/08 03:09:59;;;;;;;21.07;13.70;;;;;;;6.28;100.00;100532.56;5058408;28;20196;-67
2023/04/08 03:12:26;;;;;;;16.73;13.30;;;;;;;6.20;100.00;100529.38;5079568;28;20235;-67
2023/04/08 03:14:52;;;;;;;16.90;13.53;;;;;;;6.08;100.00;100531.41;5065963;28;20268;-67
2023/04/08 03:17:17;;;;;;;16.77;13.30;;;;;;;6.10;100.00;100534.78;5055096;28;20315;-68
2023/04/08 03:19:42;;;;;;;16.23;14.20;;;;;;;6.06;100.00;100534.91;5065022;28;20193;-68
2023/04/08 03:22:08;;;;;;;17.43;14.03;;;;;;;5.93;100.00;100530.13;5078804;28;20254;-68
2023/04/08 03:24:34;;;;;;;17.43;13.93;;;;;;;5.98;100.00;100535.09;5067972;28;20207;-68
2023/04/08 03:26:59;;;;;;;18.23;14.13;;;;;;;5.94;100.00;100539.44;5052149;28;20192;-68
2023/04/08 03:29:25;;;;;;;19.60;14.53;;;;;;;5.95;100.00;100538.56;5066074;28;20643;-68
2023/04/08 03:31:50;;;;;;;21.23;15.07;;;;;;;5.85;100.00;100533.75;5027941;28;20260;-68
2023/04/08 03:34:15;;;;;;;18.00;14.00;;;;;;;5.77;100.00;100541.63;5061762;28;20187;-69
2023/04/08 03:36:40;;;;;;;18.33;14.67;;;;;;;5.77;100.00;100542.47;5051682;28;20646;-68
2023/04/08 03:39:06;;;;;;;21.27;15.40;;;;;;;5.74;100.00;100544.25;5053819;28;20187;-68
2023/04/08 03:41:31;;;;;;;21.57;15.30;;;;;;;5.62;100.00;100550.56;5033603;28;20704;-68
2023/04/08 03:43:57;;;;;;;21.17;16.73;;;;;;;5.46;100.00;100545.84;5048178;28;20187;-69
2023/04/08 03:46:22;;;;;;;21.33;16.37;;;;;;;5.60;100.00;100552.31;5050697;28;20263;-69
2023/04/08 03:48:47;;;;;;;21.13;16.07;;;;;;;5.68;100.00;100546.97;5053716;28;20229;-69
2023/04/08 03:51:13;;;;;;;22.93;16.93;;;;;;;5.65;100.00;100548.72;5045079;28;20250;-69
2023/04/08 03:53:38;;;;;;;24.83;17.57;;;;;;;5.65;100.00;100553.00;5051007;28;20187;-69
2023/04/08 03:56:03;;;;;;;22.90;16.97;;;;;;;5.65;100.00;100547.91;5045818;28;20237;-69
2023/04/08 03:58:29;;;;;;;22.47;16.83;;;;;;;5.58;100.00;100559.16;5055585;28;20183;-68
2023/04/08 04:00:54;;;;;;;21.53;17.10;;;;;;;5.44;100.00;100559.50;5048571;28;20236;-69
2023/04/08 04:03:20;;;;;;;23.33;18.67;;;;;;;5.57;100.00;100560.88;5064391;28;20635;-69
2023/04/08 04:05:47;;;;;;;21.57;16.93;;;;;;;5.56;100.00;100556.66;5046692;28;20243;-68
2023/04/08 04:08:13;;;;;;;22.63;18.03;;;;;;;5.63;100.00;100560.72;5048888;28;20201;-69
2023/04/08 04:10:38;;;;;;;22.50;17.90;;;;;;;5.67;100.00;100561.47;5046673;28;20242;-69
2023/04/08 04:13:04;;;;;;;23.37;17.73;;;;;;;5.62;100.00;100560.75;5065058;28;20175;-69
2023/04/08 04:15:29;;;;;;;22.40;17.10;;;;;;;5.63;100.00;100563.25;5052144;28;20221;-69
2023/04/08 04:17:55;;;;;;;21.40;17.17;;;;;;;5.73;100.00;100556.19;5050186;28;20277;-69
2023/04/08 04:20:20;;;;;;;19.57;17.07;;;;;;;5.76;100.00;100561.22;5043177;28;20541;-69
2023/04/08 04:22:46;;;;;;;20.03;16.77;;;;;;;5.75;100.00;100558.72;5055205;28;20194;-70
2023/04/08 04:25:11;;;;;;;21.67;16.37;;;;;;;5.68;100.00;100565.72;5064813;28;20186;-70
2023/04/08 04:27:36;;;;;;;18.63;15.47;;;;;;;5.57;100.00;100571.09;5053101;28;20198;-70
2023/04/08 04:30:02;;;;;;;20.63;16.50;;;;;;;5.45;100.00;100567.13;5051247;28;20175;-69
2023/04/08 04:32:28;;;;;;;20.30;15.67;;;;;;;5.40;100.00;100575.78;5062276;28;20255;-69
2023/04/08 04:34:53;;;;;;;18.97;16.23;;;;;;;5.34;100.00;100574.22;5051436;28;20185;-69
2023/04/08 04:37:18;;;;;;;20.27;15.60;;;;;;;5.31;100.00;100572.59;5051558;28;20211;-69
2023/04/08 04:39:43;;;;;;;18.50;15.27;;;;;;;5.21;100.00;100571.16;5048058;28;20229;-69
2023/04/08 04:42:09;;;;;;;18.70;14.77;;;;;;;5.15;100.00;100577.22;5078026;28;20244;-69
2023/04/08 04:44:34;;;;;;;18.23;15.37;;;;;;;5.07;100.00;100575.72;5051056;28;20198;-69
2023/04/08 04:47:00;;;;;;;17.80;14.53;;;;;;;4.96;100.00;100579.38;5065042;28;20692;-69
2023/04/08 04:49:26;;;;;;;18.70;14.13;;;;;;;4.87;100.00;100578.75;5055178;28;20557;-68
2023/04/08 04:51:51;;;;;;;18.87;15.50;;;;;;;4.83;100.00;100581.38;5060356;28;20227;-68
2023/04/08 04:54:16;;;;;;;17.77;14.57;;;;;;;4.77;100.00;100585.78;5056943;28;20189;-68
2023/04/08 04:56:41;;;;;;;17.70;15.03;;;;;;;4.71;100.00;100581.63;5054909;28;20275;-68
2023/04/08 04:59:07;;;;;;;16.30;14.27;;;;;;;4.64;100.00;100586.06;5052867;28;20192;-67
2023/04/08 05:01:33;;;;;;;20.23;14.67;;;;;;;4.63;100.00;100583.53;5054967;28;20255;-67
2023/04/08 05:03:58;;;;;;;20.00;14.43;;;;;;;4.59;100.00;100584.47;5052575;28;20244;-67
2023/04/08 05:06:23;;;;;;;20.30;15.40;;;;;;;4.58;100.00;100588.72;5033860;28;20209;-67
2023/04/08 05:08:50;;;;;;;18.00;14.00;;;;;;;4.56;100.00;100584.53;5051303;28;20303;-67
2023/04/08 05:11:17;;;;;;;21.63;15.73;;;;;;;4.55;100.00;100593.06;5051769;28;20590;-67
2023/04/08 05:13:42;;;;;;;19.53;14.40;;;;;;;4.50;100.00;100596.56;5059215;28;20205;-67
2023/04/08 05:16:07;;;;;;;19.97;15.47;;;;;;;4.43;100.00;100599.22;5052811;28;20260;-67
2023/04/08 05:18:33;;;;;;;22.80;15.80;;;;;;;4.39;100.00;100598.50;5051639;28;20194;-67
2023/04/08 05:20:58;;;;;;;20.47;14.97;;;;;;;4.42;100.00;100598.41;5047389;28;20232;-67
2023/04/08 05:23:23;;;;;;;19.87;15.40;;;;;;;4.46;100.00;100601.72;5060366;28;20551;-67
2023/04/08 05:25:48;;;;;;;19.50;14.80;;;;;;;4.52;100.00;100604.16;5051277;28;20173;-67
2023/04/08 05:28:14;;;;;;;20.27;15.20;;;;;;;4.56;100.00;100608.31;5052437;28;20212;-67
2023/04/08 05:30:39;;;;;;;23.17;16.63;;;;;;;4.64;100.00;100608.13;5046838;28;20224;-66
2023/04/08 05:33:05;;;;;;;24.73;17.27;;;;;;;4.71;100.00;100596.13;5054966;28;20193;-67
2023/04/08 05:35:30;;;;;;;26.63;18.63;;;;;;;4.78;100.00;100606.13;5061515;28;20183;-68
2023/04/08 05:37:55;;;;;;;23.37;17.77;;;;;;;4.83;100.00;100606.03;5055899;28;20219;-68
2023/04/08 05:40:20;;;;;;;23.83;18.20;;;;;;;4.94;100.00;100613.44;5062273;28;20183;-67
2023/04/08 05:42:46;;;;;;;22.80;17.80;;;;;;;4.97;100.00;100613.34;5048984;28;20196;-68
2023/04/08 05:45:11;;;;;;;20.50;16.67;;;;;;;5.14;100.00;100618.06;5061715;28;20203;-67
2023/04/08 05:47:36;;;;;;;22.40;16.93;;;;;;;5.25;100.00;100617.81;5051619;28;20703;-68
2023/04/08 05:50:02;;;;;;;23.93;17.73;;;;;;;5.35;100.00;100619.28;5048536;28;20197;-69
2023/04/08 05:52:27;;;;;;;22.00;17.70;;;;;;;5.51;100.00;100619.72;5057996;28;20218;-69
2023/04/08 05:54:52;;;;;;;20.27;16.70;;;;;;;5.63;100.00;100626.22;5049851;28;20184;-68
2023/04/08 05:57:18;;;;;;;21.13;16.00;;;;;;;5.61;100.00;100616.06;5052214;28;20628;-69
2023/04/08 05:59:43;;;;;;;21.97;16.50;;;;;;;5.76;100.00;100627.59;5051219;28;20179;-69
2023/04/08 06:02:09;;;;;;;21.10;16.77;;;;;;;5.85;100.00;100623.94;5055331;28;20228;-68
2023/04/08 06:04:34;;;;;;;21.27;15.97;;;;;;;5.97;100.00;100626.19;5059439;28;20855;-67
2023/04/08 06:07:01;;;;;;;19.83;16.83;;;;;;;6.09;100.00;100629.31;5064623;28;20180;-68
2023/04/08 06:09:27;;;;;;;21.53;15.83;;;;;;;6.19;100.00;100629.88;5061652;28;20206;-67
2023/04/08 06:11:52;;;;;;;19.70;16.37;;;;;;;6.29;100.00;100632.16;5067156;28;20227;-68
2023/04/08 06:14:19;;;;;;;18.80;16.33;;;;;;;6.41;100.00;100636.09;5055984;28;20494;-68
2023/04/08 06:16:44;;;;;;;17.50;15.30;;;;;;;6.58;100.00;100639.88;5064967;28;20185;-68
2023/04/08 06:19:10;;;;;;;16.93;15.13;;;;;;;6.63;100.00;100635.44;5060536;28;20194;-68
2023/04/08 06:21:36;;;;;;;17.63;15.33;;;;;;;6.80;100.00;100634.97;5069489;28;20826;-68
2023/04/08 06:24:01;;;;;;;16.40;14.70;;;;;;;7.01;100.00;100642.84;5045299;28;20201;-67
2023/04/08 06:26:26;;;;;;;18.30;16.33;;;;;;;7.25;100.00;100639.50;5064233;28;20175;-68
2023/04/08 06:28:52;;;;;;;17.80;15.97;;;;;;;7.41;100.00;100637.28;5058878;28;20287;-67
2023/04/08 06:31:17;;;;;;;18.27;16.10;;;;;;;7.47;100.00;100640.53;5068873;28;20239;-68
2023/04/08 06:33:42;;;;;;;17.20;15.43;;;;;;;7.34;100.00;100645.22;5060537;28;20192;-68
2023/04/08 06:36:08;;;;;;;17.47;15.63;;;;;;;7.26;100.00;100645.47;5059487;28;20222;-68
2023/04/08 06:38:34;;;;;;;15.90;14.37;;;;;;;7.39;100.00;100644.19;5070505;28;20512;-69
2023/04/08 06:41:06;;;;;;;18.17;15.37;;;;;;;7.67;100.00;100639.88;5060956;28;20304;-68
2023/04/08 06:43:33;;;;;;;16.40;14.43;;;;;;;7.95;100.00;100644.91;5068052;28;20172;-68
2023/04/08 06:45:58;;;;;;;16.37;14.77;;;;;;;8.00;100.00;100650.69;5065710;28;20228;-67
2023/04/08 06:48:29;;;;;;;17.90;16.00;;;;;;;8.11;100.00;100652.03;5061296;28;20192;-68
2023/04/08 06:50:55;;;;;;;15.73;14.13;;;;;;;8.47;100.00;100652.47;5059821;28;20232;-67
2023/04/08 06:53:23;;;;;;;16.07;13.53;;;;;;;9.02;100.00;100651.28;5062578;28;20185;-68
2023/04/08 06:55:48;;;;;;;14.57;13.17;;;;;;;9.53;100.00;100654.38;5063482;28;20191;-67
2023/04/08 06:58:13;;;;;;;14.60;13.10;;;;;;;10.18;100.00;100652.47;5061405;28;20181;-67
2023/04/08 07:00:39;;;;;;;13.27;11.93;;;;;;;10.52;100.00;100645.00;5040048;28;20223;-67
2023/04/08 07:03:04;;;;;;;15.13;13.70;;;;;;;10.39;100.00;100651.59;5052959;28;20189;-67
2023/04/08 07:05:29;;;;;;;17.20;13.23;;;;;;;10.30;100.00;100650.25;5068814;28;20268;-67
2023/04/08 07:07:55;;;;;;;14.20;12.17;;;;;;;10.40;100.00;100655.84;5064219;28;20220;-68
2023/04/08 07:10:20;;;;;;;14.47;12.80;;;;;;;10.33;100.00;100656.09;5064235;28;20184;-68
2023/04/08 07:12:45;;;;;;;14.57;13.27;;;;;;;10.56;100.00;100651.66;5055674;28;20178;-68
2023/04/08 07:15:11;;;;;;;13.73;12.43;;;;;;;11.05;100.00;100651.13;5045172;28;20178;-68
2023/04/08 07:17:36;;;;;;;13.30;12.00;;;;;;;11.43;100.00;100648.41;5050534;28;20488;-68
2023/04/08 07:20:02;;;;;;;14.30;12.93;;;;;;;11.57;100.00;100652.06;5059037;27;20181;-68
2023/04/08 07:22:27;;;;;;;13.63;12.33;;;;;;;10.97;100.00;100659.19;5059136;28;20552;-68
2023/04/08 07:24:52;;;;;;;13.83;12.53;;;;;;;10.71;100.00;100660.41;5064443;28;20231;-68
2023/04/08 07:27:18;;;;;;;15.03;13.57;;;;;;;10.28;100.00;100670.88;5054185;28;20194;-68
2023/04/08 07:29:43;;;;;;;20.03;16.90;;;;;;;10.09;100.00;100670.84;5052267;28;20185;-68
2023/04/08 07:32:08;;;;;;;14.70;13.30;;;;;;;10.18;100.00;100675.59;5012110;28;20240;-68
2023/04/08 07:34:35;;;;;;;14.50;12.97;;;;;;;10.03;100.00;100673.69;5068876;28;20238;-68
2023/04/08 07:37:00;;;;;;;15.60;14.00;;;;;;;10.27;100.00;100676.94;5043047;28;20182;-68
2023/04/08 07:39:26;;;;;;;14.50;13.10;;;;;;;10.07;100.00;100685.50;5067368;28;20631;-69
2023/04/08 07:41:51;;;;;;;15.67;13.73;;;;;;;9.86;100.00;100684.69;5043241;28;20601;-67
2023/04/08 07:44:16;;;;;;;17.20;14.30;;;;;;;9.92;100.00;100686.16;5056727;28;20176;-67
2023/04/08 07:46:44;;;;;;;16.37;14.87;;;;;;;9.92;100.00;100693.88;5053698;28;20233;-67
2023/04/08 07:49:09;;;;;;;15.20;13.77;;;;;;;9.51;100.00;100689.53;5069351;28;20279;-69
2023/04/08 07:51:35;;;;;;;14.57;13.17;;;;;;;9.60;100.00;100691.75;5056924;28;20723;-67
2023/04/08 07:54:00;;;;;;;15.40;13.77;;;;;;;9.42;100.00;100688.19;5053762;28;20534;-68
2023/04/08 07:56:26;;;;;;;14.50;13.17;;;;;;;9.51;100.00;100695.53;5064012;28;20184;-68
2023/04/08 07:58:51;;;;;;;14.93;13.53;;;;;;;9.54;100.00;100697.13;5066291;28;20211;-68
2023/04/08 08:01:21;;;;;;;15.63;13.63;;;;;;;9.33;100.00;100691.94;5043764;28;20263;-67
2023/04/08 08:03:50;;;;;;;16.10;14.50;;;;;;;9.37;100.00;100690.09;5045014;28;20193;-68
2023/04/08 08:06:16;;;;;;;15.73;14.10;;;;;;;9.60;100.00;100699.44;5049111;28;20198;-68
2023/04/08 08:08:41;;;;;;;15.53;14.03;;;;;;;9.87;100.00;100701.75;5048523;28;20686;-68
2023/04/08 08:11:07;;;;;;;16.07;14.47;;;;;;;10.25;100.00;100701.88;5048099;28;20212;-69
2023/04/08 08:13:33;;;;;;;15.00;13.60;;;;;;;10.26;100.00;100708.69;5057334;28;20585;-68
2023/04/08 08:15:58;;;;;;;14.33;12.90;;;;;;;10.26;100.00;100708.69;5050032;28;20178;-68
2023/04/08 08:18:23;;;;;;;14.53;13.23;;;;;;;10.09;100.00;100711.16;5048431;28;20227;-69
2023/04/08 08:20:48;;;;;;;13.83;12.53;;;;;;;10.07;100.00;100712.94;5050446;28;20220;-69
2023/04/08 08:23:14;;;;;;;13.80;12.50;;;;;;;10.61;100.00;100714.03;5050864;28;20177;-69
2023/04/08 08:25:39;;;;;;;14.07;12.77;;;;;;;10.61;100.00;100714.03;5041599;28;20182;-68
2023/04/08 08:28:05;;;;;;;14.70;13.20;;;;;;;10.47;100.00;100719.78;5060464;28;20213;-69
2023/04/08 08:30:30;;;;;;;14.17;12.87;;;;;;;10.29;100.00;100723.13;5046677;28;20228;-68
2023/04/08 08:32:57;;;;;;;13.77;12.47;;;;;;;10.41;100.00;100724.38;5048781;28;20617;-67
2023/04/08 08:35:23;;;;;;;14.03;12.73;;;;;;;10.91;100.00;100721.25;5053154;28;20176;-69
2023/04/08 08:37:48;;;;;;;14.83;13.33;;;;;;;11.18;100.00;100715.72;5043737;28;20208;-69
2023/04/08 08:40:14;;;;;;;15.13;13.73;;;;;;;11.43;100.00;100719.72;5044358;28;20429;-68
2023/04/08 08:42:40;;;;;;;15.43;13.97;;;;;;;11.66;100.00;100717.75;5063349;28;20667;-68
2023/04/08 08:45:06;;;;;;;14.87;13.27;;;;;;;11.43;100.00;100720.53;5038392;28;20197;-68
2023/04/08 08:47:31;;;;;;;14.43;13.00;;;;;;;11.16;100.00;100725.25;5049446;28;20233;-68
2023/04/08 08:49:56;;;;;;;13.37;12.17;;;;;;;11.00;100.00;100732.03;5056494;28;20260;-67
2023/04/08 08:52:21;;;;;;;15.87;14.27;;;;;;;10.77;100.00;100733.94;5043721;28;20229;-69
2023/04/08 08:54:47;;;;;;;16.43;13.63;;;;;;;10.19;100.00;100743.25;5052139;28;20176;-67
2023/04/08 08:57:19;;;;;;;16.97;15.27;;;;;;;10.06;100.00;100742.97;5052491;28;20200;-67
2023/04/08 08:59:46;;;;;;;17.07;15.00;;;;;;;10.09;100.00;100749.69;5054514;28;20208;-66
2023/04/08 09:02:29;;;;;;;16.23;14.53;;;;;;;9.72;100.00;100746.09;5039154;28;20755;-68
2023/04/08 09:05:00;;;;;;;16.17;14.47;;;;;;;9.72;100.00;100738.38;5049454;28;20182;-67
2023/04/08 09:07:26;;;;;;;16.37;14.50;;;;;;;9.53;100.00;100742.50;5051731;28;20644;-69
2023/04/08 09:09:54;;;;;;;16.90;15.20;;;;;;;9.59;100.00;100738.88;5055303;28;20173;-68
2023/04/08 09:12:21;;;;;;;15.67;14.07;;;;;;;9.73;100.00;100753.72;5045359;28;20249;-70
2023/04/08 09:14:47;;;;;;;16.87;14.53;;;;;;;9.87;100.00;100752.31;5051009;28;20247;-69
2023/04/08 09:17:12;;;;;;;15.90;14.23;;;;;;;9.97;100.00;100746.75;5056594;28;20205;-70
2023/04/08 09:19:38;;;;;;;15.73;14.03;;;;;;;9.91;100.00;100749.56;5051892;28;20181;-69
2023/04/08 09:22:10;;;;;;;15.23;13.63;;;;;;;9.97;100.00;100745.91;5061304;28;20228;-69
2023/04/08 09:24:36;;;;;;;14.80;13.20;;;;;;;10.17;100.00;100758.75;5057202;28;20239;-69
2023/04/08 09:27:03;;;;;;;14.87;13.27;;;;;;;9.98;100.00;100755.28;5052826;28;20272;-70
2023/04/08 09:29:29;;;;;;;16.77;13.57;;;;;;;10.02;100.00;100764.53;5050937;28;20202;-69
2023/04/08 09:31:57;;;;;;;15.73;13.67;;;;;;;10.16;100.00;100764.81;5060396;28;20322;-68
2023/04/08 09:34:23;;;;;;;15.83;14.33;;;;;;;10.38;100.00;100755.34;5052113;28;20196;-70
2023/04/08 09:36:49;;;;;;;18.23;14.30;;;;;;;10.37;100.00;100764.81;5051882;28;20578;-68
2023/04/08 09:39:14;;;;;;;15.20;13.70;;;;;;;10.46;100.00;100755.88;5059967;28;20256;-69
2023/04/08 09:41:41;;;;;;;14.43;13.03;;;;;;;10.73;100.00;100758.13;5039728;28;20320;-68
2023/04/08 09:44:08;;;;;;;13.53;12.23;;;;;;;10.79;100.00;100757.84;5055902;28;20177;-68
2023/04/08 09:46:42;;;;;;;14.40;12.90;;;;;;;10.36;100.00;100770.88;5055086;28;20254;-67
2023/04/08 09:49:11;;;;;;;14.60;13.17;;;;;;;10.26;100.00;100772.13;5046807;28;20713;-67
2023/04/08 09:51:48;;;;;;;15.00;13.53;;;;;;;10.35;100.00;100776.88;5041592;28;20316;-67
2023/04/08 09:54:19;;;;;;;43.10;40.47;;;;;;;10.41;100.00;100779.22;4784184;28;991265;-66
2023/04/08 09:57:00;;;;;;;15.43;13.93;;;;;;;10.95;100.00;100768.28;4753197;28;989945;-67
2023/04/08 09:59:32;;;;;;;15.00;13.60;;;;;;;10.85;100.00;100773.00;5049243;28;20229;-68
2023/04/08 10:02:03;;;;;;;14.57;13.07;;;;;;;10.81;100.00;100767.16;5053329;28;20387;-68
2023/04/08 10:04:34;;;;;;;13.90;12.50;;;;;;;10.58;100.00;100768.19;5047460;28;20204;-67
2023/04/08 10:07:05;;;;;;;106.40;101.20;;;;;;;10.26;100.00;100777.28;4718916;28;990984;-67
2023/04/08 10:09:31;;;;;;;;;;;;;;;9.85;100.00;100775.53;4417633;28;7613242;-68
2023/04/08 10:11:56;;;;;;;;;;;;;;;9.84;100.00;100773.84;5063222;28;19920;-69
2023/04/08 10:14:22;;;;;;;;;;;;;;;9.97;100.00;100769.03;5062639;28;20285;-69
2023/04/08 10:16:47;;;;;;;;;;;;;;;9.94;100.00;100771.75;5056265;28;20368;-69
2023/04/08 10:19:32;;;;;;;;;;;;;;;10.04;100.00;100775.59;5055700;28;19924;-70
2023/04/08 10:21:57;;;;;;;;;;;;;;;9.77;100.00;100770.66;5048555;28;19931;-69
2023/04/08 10:24:24;;;;;;;;;;;;;;;9.90;100.00;100771.03;5058742;28;19912;-69
2023/04/08 10:26:49;;;;;;;;;;;;;;;10.17;100.00;100771.63;5044887;28;20421;-68
2023/04/08 10:29:17;;;;;;;;;;;;;;;10.45;100.00;100775.59;5059292;28;19946;-60
2023/04/08 10:31:49;;;;;;;;;;;;;;;10.74;100.00;100767.50;5065283;28;19916;-72
2023/04/08 10:34:16;;;;;;;;;;;;;;;10.93;100.00;100770.13;5055575;28;19913;-72
2023/04/08 10:36:41;;;;;;;;;;;;;;;11.17;100.00;100757.84;5051634;28;20383;-71
2023/04/08 10:39:06;;;;;;;;;;;;;;;11.08;100.00;100756.53;5051274;28;19913;-72
2023/04/08 10:41:32;;;;;;;;;;;;;;;11.04;100.00;100759.31;5054600;28;19920;-72
2023/04/08 10:43:57;;;;;;;;;;;;;;;11.32;97.44;100761.44;5058540;28;20427;-72
2023/04/08 10:46:22;;;;;;;;;;;;;;;11.56;96.89;100759.44;5060409;28;19916;-71
2023/04/08 10:48:58;;;;;;;;;;;;;;;11.70;94.12;100761.34;5060328;28;20334;-70
2023/04/08 10:51:25;;;;;;;;;;;;;;;11.88;94.03;100757.03;5048368;28;19917;-73
2023/04/08 10:53:50;;;;;;;;;;;;;;;12.07;92.39;100756.97;5065576;28;20004;-69
2023/04/08 10:56:17;;;;;;;;;;;;;;;12.54;91.22;100765.78;5073724;28;19920;-72
2023/04/08 10:58:49;;;;;;;;;;;;;;;12.01;86.20;100764.19;5071762;28;19960;-71
2023/04/08 11:01:14;;;;;;;;;;;;;;;12.25;89.80;100759.53;5046356;28;19916;-71
2023/04/08 11:03:41;;;;;;;;;;;;;;;12.23;90.78;100763.94;5053049;28;20421;-69
2023/04/08 11:06:07;;;;;;;;;;;;;;;12.40;88.95;100753.59;5074313;28;19916;-70
2023/04/08 11:08:32;;;;;;;;;;;;;;;12.63;88.10;100753.28;5059129;28;19920;-71
2023/04/08 11:11:00;;;;;;;;;;;;;;;12.45;84.39;100758.50;5070746;28;20335;-73